sensor_id;sensor_type;location;lat;lon;timestamp;temperature;humidity
12006;DHT22;6062;47.294;12.182;2023-02-28T00:00:34;-5.30;68.70
12006;DHT22;6062;47.294;12.182;2023-02-28T00:03:01;-5.30;68.10
12006;DHT22;6062;47.294;12.182;2023-02-28T00:05:28;-5.30;68.10
12006;DHT22;6062;47.294;12.182;2023-02-28T00:07:54;-5.30;68.00
12006;DHT22;6062;47.294;12.182;2023-02-28T00:10:31;-5.20;68.10
12006;DHT22;6062;47.294;12.182;2023-02-28T00:13:03;-5.20;68.30
12006;DHT22;6062;47.294;12.182;2023-02-28T00:15:31;-5.20;68.40
12006;DHT22;6062;47.294;12.182;2023-02-28T00:17:57;-5.20;68.20
12006;DHT22;6062;47.294;12.182;2023-02-28T00:20:23;-5.10;68.10
12006;DHT22;6062;47.294;12.182;2023-02-28T00:22:52;-5.10;67.90
12006;DHT22;6062;47.294;12.182;2023-02-28T00:25:21;-5.00;68.00
12006;DHT22;6062;47.294;12.182;2023-02-28T00:27:48;-5.00;67.80
12006;DHT22;6062;47.294;12.182;2023-02-28T00:30:17;-5.00;67.80
12006;DHT22;6062;47.294;12.182;2023-02-28T00:32:44;-4.90;67.70
12006;DHT22;6062;47.294;12.182;2023-02-28T00:35:11;-4.90;67.60
12006;DHT22;6062;47.294;12.182;2023-02-28T00:37:37;-4.90;67.50
12006;DHT22;6062;47.294;12.182;2023-02-28T00:40:04;-4.90;67.40
12006;DHT22;6062;47.294;12.182;2023-02-28T00:42:32;-4.90;67.20
12006;DHT22;6062;47.294;12.182;2023-02-28T00:44:59;-4.80;67.00
12006;DHT22;6062;47.294;12.182;2023-02-28T00:47:25;-4.90;66.70
12006;DHT22;6062;47.294;12.182;2023-02-28T00:49:51;-4.80;66.60
12006;DHT22;6062;47.294;12.182;2023-02-28T00:52:17;-4.80;66.40
12006;DHT22;6062;47.294;12.182;2023-02-28T00:54:42;-4.80;66.10
12006;DHT22;6062;47.294;12.182;2023-02-28T00:57:08;-4.90;65.80
12006;DHT22;6062;47.294;12.182;2023-02-28T00:59:34;-4.90;65.70
12006;DHT22;6062;47.294;12.182;2023-02-28T01:02:00;-4.90;65.40
12006;DHT22;6062;47.294;12.182;2023-02-28T01:04:26;-5.00;65.00
12006;DHT22;6062;47.294;12.182;2023-02-28T01:06:51;-5.00;65.00
12006;DHT22;6062;47.294;12.182;2023-02-28T01:09:18;-5.10;64.80
12006;DHT22;6062;47.294;12.182;2023-02-28T01:11:44;-5.10;64.50
12006;DHT22;6062;47.294;12.182;2023-02-28T01:14:16;-5.20;63.90
12006;DHT22;6062;47.294;12.182;2023-02-28T01:16:43;-5.30;63.40
12006;DHT22;6062;47.294;12.182;2023-02-28T01:19:08;-5.30;63.40
12006;DHT22;6062;47.294;12.182;2023-02-28T01:21:34;-5.40;63.90
12006;DHT22;6062;47.294;12.182;2023-02-28T01:24:01;-5.50;64.50
12006;DHT22;6062;47.294;12.182;2023-02-28T01:26:27;-5.50;64.90
12006;DHT22;6062;47.294;12.182;2023-02-28T01:28:53;-5.60;65.00
12006;DHT22;6062;47.294;12.182;2023-02-28T01:31:20;-5.60;65.30
12006;DHT22;6062;47.294;12.182;2023-02-28T01:33:47;-5.60;65.60
12006;DHT22;6062;47.294;12.182;2023-02-28T01:36:22;-5.60;65.80
12006;DHT22;6062;47.294;12.182;2023-02-28T01:38:50;-5.60;66.00
12006;DHT22;6062;47.294;12.182;2023-02-28T01:41:25;-5.50;66.40
12006;DHT22;6062;47.294;12.182;2023-02-28T01:43:59;-5.50;66.80
12006;DHT22;6062;47.294;12.182;2023-02-28T01:46:29;-5.50;67.50
12006;DHT22;6062;47.294;12.182;2023-02-28T01:49:02;-5.40;68.00
12006;DHT22;6062;47.294;12.182;2023-02-28T01:51:50;-5.30;68.90
12006;DHT22;6062;47.294;12.182;2023-02-28T01:54:30;-5.20;69.40
12006;DHT22;6062;47.294;12.182;2023-02-28T01:57:05;-5.10;69.40
12006;DHT22;6062;47.294;12.182;2023-02-28T01:59:42;-4.90;69.20
12006;DHT22;6062;47.294;12.182;2023-02-28T02:02:12;-4.80;68.50
12006;DHT22;6062;47.294;12.182;2023-02-28T02:04:44;-4.70;68.10
12006;DHT22;6062;47.294;12.182;2023-02-28T02:07:15;-4.70;67.80
12006;DHT22;6062;47.294;12.182;2023-02-28T02:09:41;-4.60;67.40
12006;DHT22;6062;47.294;12.182;2023-02-28T02:12:24;-4.60;66.90
12006;DHT22;6062;47.294;12.182;2023-02-28T02:15:17;-4.50;66.80
12006;DHT22;6062;47.294;12.182;2023-02-28T02:17:56;-4.50;66.60
12006;DHT22;6062;47.294;12.182;2023-02-28T02:23:56;-4.40;66.40
12006;DHT22;6062;47.294;12.182;2023-02-28T02:26:58;-4.40;66.20
12006;DHT22;6062;47.294;12.182;2023-02-28T02:33:26;-4.40;65.70
12006;DHT22;6062;47.294;12.182;2023-02-28T02:36:27;-4.40;65.30
12006;DHT22;6062;47.294;12.182;2023-02-28T02:41:53;-4.50;64.50
12006;DHT22;6062;47.294;12.182;2023-02-28T02:47:15;-4.70;65.00
12006;DHT22;6062;47.294;12.182;2023-02-28T02:49:47;-4.80;65.60
12006;DHT22;6062;47.294;12.182;2023-02-28T02:52:20;-4.80;65.90
12006;DHT22;6062;47.294;12.182;2023-02-28T02:54:52;-4.80;65.70
12006;DHT22;6062;47.294;12.182;2023-02-28T02:57:35;-4.80;65.40
12006;DHT22;6062;47.294;12.182;2023-02-28T03:00:06;-4.90;65.50
12006;DHT22;6062;47.294;12.182;2023-02-28T03:02:35;-4.90;65.80
12006;DHT22;6062;47.294;12.182;2023-02-28T03:05:08;-4.80;65.80
12006;DHT22;6062;47.294;12.182;2023-02-28T03:07:42;-4.80;66.50
12006;DHT22;6062;47.294;12.182;2023-02-28T03:13:39;-4.70;67.50
12006;DHT22;6062;47.294;12.182;2023-02-28T03:16:36;-4.60;67.00
12006;DHT22;6062;47.294;12.182;2023-02-28T03:22:46;-4.50;66.90
12006;DHT22;6062;47.294;12.182;2023-02-28T03:25:45;-4.40;67.30
12006;DHT22;6062;47.294;12.182;2023-02-28T03:31:18;-4.20;67.70
12006;DHT22;6062;47.294;12.182;2023-02-28T03:33:53;-4.20;67.40
12006;DHT22;6062;47.294;12.182;2023-02-28T03:36:47;-4.10;67.30
12006;DHT22;6062;47.294;12.182;2023-02-28T03:39:28;-4.00;67.10
12006;DHT22;6062;47.294;12.182;2023-02-28T03:42:14;-3.90;67.00
12006;DHT22;6062;47.294;12.182;2023-02-28T03:47:25;-3.70;66.90
12006;DHT22;6062;47.294;12.182;2023-02-28T03:52:36;-3.50;66.30
12006;DHT22;6062;47.294;12.182;2023-02-28T03:55:10;-3.40;65.90
12006;DHT22;6062;47.294;12.182;2023-02-28T04:00:40;-3.30;64.20
12006;DHT22;6062;47.294;12.182;2023-02-28T04:03:10;-3.30;63.10
12006;DHT22;6062;47.294;12.182;2023-02-28T04:05:54;-3.40;62.50
12006;DHT22;6062;47.294;12.182;2023-02-28T04:08:22;-3.50;62.10
12006;DHT22;6062;47.294;12.182;2023-02-28T04:11:03;-3.60;62.40
12006;DHT22;6062;47.294;12.182;2023-02-28T04:13:32;-3.70;62.60
12006;DHT22;6062;47.294;12.182;2023-02-28T04:15:58;-3.80;62.70
12006;DHT22;6062;47.294;12.182;2023-02-28T04:18:23;-3.80;63.10
12006;DHT22;6062;47.294;12.182;2023-02-28T04:20:49;-3.80;63.80
12006;DHT22;6062;47.294;12.182;2023-02-28T04:23:15;-3.80;64.10
12006;DHT22;6062;47.294;12.182;2023-02-28T04:25:40;-3.80;64.50
12006;DHT22;6062;47.294;12.182;2023-02-28T04:28:06;-3.70;64.90
12006;DHT22;6062;47.294;12.182;2023-02-28T04:30:32;-3.70;65.10
12006;DHT22;6062;47.294;12.182;2023-02-28T04:32:58;-3.60;65.10
12006;DHT22;6062;47.294;12.182;2023-02-28T04:35:25;-3.50;65.10
12006;DHT22;6062;47.294;12.182;2023-02-28T04:37:50;-3.40;65.20
12006;DHT22;6062;47.294;12.182;2023-02-28T04:40:16;-3.30;65.30
12006;DHT22;6062;47.294;12.182;2023-02-28T04:42:42;-3.20;65.20
12006;DHT22;6062;47.294;12.182;2023-02-28T04:45:08;-3.10;65.20
12006;DHT22;6062;47.294;12.182;2023-02-28T04:47:36;-3.10;65.00
12006;DHT22;6062;47.294;12.182;2023-02-28T04:50:02;-3.00;64.80
12006;DHT22;6062;47.294;12.182;2023-02-28T04:52:29;-2.80;64.80
12006;DHT22;6062;47.294;12.182;2023-02-28T04:54:54;-2.80;64.70
12006;DHT22;6062;47.294;12.182;2023-02-28T04:57:20;-2.70;64.40
12006;DHT22;6062;47.294;12.182;2023-02-28T04:59:46;-2.60;64.00
12006;DHT22;6062;47.294;12.182;2023-02-28T05:02:11;-2.60;63.80
12006;DHT22;6062;47.294;12.182;2023-02-28T05:04:37;-2.50;63.50
12006;DHT22;6062;47.294;12.182;2023-02-28T05:07:03;-2.40;63.40
12006;DHT22;6062;47.294;12.182;2023-02-28T05:09:29;-2.30;63.20
12006;DHT22;6062;47.294;12.182;2023-02-28T05:11:55;-2.30;63.00
12006;DHT22;6062;47.294;12.182;2023-02-28T05:14:21;-2.20;62.80
12006;DHT22;6062;47.294;12.182;2023-02-28T05:16:47;-2.10;62.60
12006;DHT22;6062;47.294;12.182;2023-02-28T05:19:13;-2.10;62.30
12006;DHT22;6062;47.294;12.182;2023-02-28T05:21:41;-2.00;62.20
12006;DHT22;6062;47.294;12.182;2023-02-28T05:24:13;-2.00;62.20
12006;DHT22;6062;47.294;12.182;2023-02-28T05:26:42;-2.00;62.00
12006;DHT22;6062;47.294;12.182;2023-02-28T05:29:09;-1.90;61.70
12006;DHT22;6062;47.294;12.182;2023-02-28T05:31:35;-1.90;61.50
12006;DHT22;6062;47.294;12.182;2023-02-28T05:34:02;-1.90;61.30
12006;DHT22;6062;47.294;12.182;2023-02-28T05:36:29;-1.90;61.20
12006;DHT22;6062;47.294;12.182;2023-02-28T05:38:55;-1.90;61.00
12006;DHT22;6062;47.294;12.182;2023-02-28T05:41:21;-1.80;60.90
12006;DHT22;6062;47.294;12.182;2023-02-28T05:43:48;-1.80;60.80
12006;DHT22;6062;47.294;12.182;2023-02-28T05:46:14;-1.80;60.70
12006;DHT22;6062;47.294;12.182;2023-02-28T05:48:41;-1.80;60.50
12006;DHT22;6062;47.294;12.182;2023-02-28T05:51:08;-1.80;60.50
12006;DHT22;6062;47.294;12.182;2023-02-28T05:53:34;-1.80;60.60
12006;DHT22;6062;47.294;12.182;2023-02-28T05:56:00;-1.80;60.70
12006;DHT22;6062;47.294;12.182;2023-02-28T05:58:27;-1.80;60.60
12006;DHT22;6062;47.294;12.182;2023-02-28T06:00:57;-1.80;60.40
12006;DHT22;6062;47.294;12.182;2023-02-28T06:03:24;-1.80;60.40
12006;DHT22;6062;47.294;12.182;2023-02-28T06:05:50;-1.80;60.30
12006;DHT22;6062;47.294;12.182;2023-02-28T06:08:16;-1.70;60.40
12006;DHT22;6062;47.294;12.182;2023-02-28T06:10:41;-1.70;60.20
12006;DHT22;6062;47.294;12.182;2023-02-28T06:13:07;-1.70;60.10
12006;DHT22;6062;47.294;12.182;2023-02-28T06:15:33;-1.70;60.40
12006;DHT22;6062;47.294;12.182;2023-02-28T06:17:59;-1.60;61.00
12006;DHT22;6062;47.294;12.182;2023-02-28T06:20:26;-1.40;61.60
12006;DHT22;6062;47.294;12.182;2023-02-28T06:22:55;-1.10;62.10
12006;DHT22;6062;47.294;12.182;2023-02-28T06:25:24;-0.70;62.60
12006;DHT22;6062;47.294;12.182;2023-02-28T06:27:51;-0.30;62.90
12006;DHT22;6062;47.294;12.182;2023-02-28T06:30:17;0.20;62.50
12006;DHT22;6062;47.294;12.182;2023-02-28T06:32:43;0.70;62.20
12006;DHT22;6062;47.294;12.182;2023-02-28T06:35:09;1.20;61.50
12006;DHT22;6062;47.294;12.182;2023-02-28T06:37:35;1.70;60.40
12006;DHT22;6062;47.294;12.182;2023-02-28T06:40:01;2.30;59.50
12006;DHT22;6062;47.294;12.182;2023-02-28T06:42:28;2.80;58.00
12006;DHT22;6062;47.294;12.182;2023-02-28T06:44:56;3.30;56.90
12006;DHT22;6062;47.294;12.182;2023-02-28T06:47:22;3.80;56.10
12006;DHT22;6062;47.294;12.182;2023-02-28T06:49:48;4.30;55.40
12006;DHT22;6062;47.294;12.182;2023-02-28T06:52:14;4.80;54.50
12006;DHT22;6062;47.294;12.182;2023-02-28T06:54:39;5.30;53.30
12006;DHT22;6062;47.294;12.182;2023-02-28T06:57:05;5.70;51.80
12006;DHT22;6062;47.294;12.182;2023-02-28T06:59:31;6.20;51.20
12006;DHT22;6062;47.294;12.182;2023-02-28T07:01:57;6.60;50.70
12006;DHT22;6062;47.294;12.182;2023-02-28T07:04:23;7.00;49.90
12006;DHT22;6062;47.294;12.182;2023-02-28T07:06:49;7.40;48.70
12006;DHT22;6062;47.294;12.182;2023-02-28T07:09:14;7.80;48.20
12006;DHT22;6062;47.294;12.182;2023-02-28T07:11:40;8.20;48.20
12006;DHT22;6062;47.294;12.182;2023-02-28T07:14:08;8.70;47.20
12006;DHT22;6062;47.294;12.182;2023-02-28T07:16:35;9.10;46.50
12006;DHT22;6062;47.294;12.182;2023-02-28T07:19:01;9.50;45.80
12006;DHT22;6062;47.294;12.182;2023-02-28T07:21:27;10.00;45.00
12006;DHT22;6062;47.294;12.182;2023-02-28T07:23:53;10.40;44.00
12006;DHT22;6062;47.294;12.182;2023-02-28T07:26:19;10.80;44.20
12006;DHT22;6062;47.294;12.182;2023-02-28T07:28:47;11.20;42.30
12006;DHT22;6062;47.294;12.182;2023-02-28T07:31:14;11.50;41.20
12006;DHT22;6062;47.294;12.182;2023-02-28T07:33:41;11.90;41.10
12006;DHT22;6062;47.294;12.182;2023-02-28T07:36:10;12.20;39.70
12006;DHT22;6062;47.294;12.182;2023-02-28T07:38:42;12.50;39.60
12006;DHT22;6062;47.294;12.182;2023-02-28T07:41:11;12.80;39.10
12006;DHT22;6062;47.294;12.182;2023-02-28T07:43:36;13.20;38.10
12006;DHT22;6062;47.294;12.182;2023-02-28T07:46:04;13.50;37.10
12006;DHT22;6062;47.294;12.182;2023-02-28T07:48:32;13.70;36.00
12006;DHT22;6062;47.294;12.182;2023-02-28T07:50:59;13.90;36.60
12006;DHT22;6062;47.294;12.182;2023-02-28T07:53:25;14.20;35.50
12006;DHT22;6062;47.294;12.182;2023-02-28T07:55:55;14.40;35.90
12006;DHT22;6062;47.294;12.182;2023-02-28T07:58:25;14.60;35.70
12006;DHT22;6062;47.294;12.182;2023-02-28T08:00:51;14.80;35.60
12006;DHT22;6062;47.294;12.182;2023-02-28T08:03:18;15.10;34.80
12006;DHT22;6062;47.294;12.182;2023-02-28T08:05:44;15.30;34.40
12006;DHT22;6062;47.294;12.182;2023-02-28T08:08:10;15.60;34.00
12006;DHT22;6062;47.294;12.182;2023-02-28T08:10:36;15.80;33.20
12006;DHT22;6062;47.294;12.182;2023-02-28T08:13:03;16.00;32.90
12006;DHT22;6062;47.294;12.182;2023-02-28T08:15:29;16.20;32.30
12006;DHT22;6062;47.294;12.182;2023-02-28T08:17:55;16.50;32.00
12006;DHT22;6062;47.294;12.182;2023-02-28T08:20:25;16.70;31.30
12006;DHT22;6062;47.294;12.182;2023-02-28T08:22:51;16.80;31.20
12006;DHT22;6062;47.294;12.182;2023-02-28T08:25:17;17.00;30.80
12006;DHT22;6062;47.294;12.182;2023-02-28T08:27:43;17.20;30.40
12006;DHT22;6062;47.294;12.182;2023-02-28T08:30:13;17.40;29.90
12006;DHT22;6062;47.294;12.182;2023-02-28T08:32:40;17.50;29.30
12006;DHT22;6062;47.294;12.182;2023-02-28T08:35:07;17.60;29.30
12006;DHT22;6062;47.294;12.182;2023-02-28T08:37:34;17.80;29.50
12006;DHT22;6062;47.294;12.182;2023-02-28T08:40:01;17.80;29.00
12006;DHT22;6062;47.294;12.182;2023-02-28T08:42:26;17.90;28.70
12006;DHT22;6062;47.294;12.182;2023-02-28T08:44:52;17.80;28.70
12006;DHT22;6062;47.294;12.182;2023-02-28T08:47:18;17.90;28.70
12006;DHT22;6062;47.294;12.182;2023-02-28T08:49:44;18.00;28.60
12006;DHT22;6062;47.294;12.182;2023-02-28T08:52:10;18.10;28.50
12006;DHT22;6062;47.294;12.182;2023-02-28T08:54:35;18.20;28.10
12006;DHT22;6062;47.294;12.182;2023-02-28T08:57:02;18.30;28.00
12006;DHT22;6062;47.294;12.182;2023-02-28T08:59:29;18.40;28.10
12006;DHT22;6062;47.294;12.182;2023-02-28T09:01:55;18.50;27.70
12006;DHT22;6062;47.294;12.182;2023-02-28T09:04:21;18.70;27.30
12006;DHT22;6062;47.294;12.182;2023-02-28T09:06:47;18.80;27.20
12006;DHT22;6062;47.294;12.182;2023-02-28T09:09:14;18.90;26.90
12006;DHT22;6062;47.294;12.182;2023-02-28T09:11:41;18.90;27.00
12006;DHT22;6062;47.294;12.182;2023-02-28T09:14:07;19.00;26.70
12006;DHT22;6062;47.294;12.182;2023-02-28T09:16:33;19.10;26.70
12006;DHT22;6062;47.294;12.182;2023-02-28T09:19:00;19.10;26.20
12006;DHT22;6062;47.294;12.182;2023-02-28T09:21:27;19.20;26.30
12006;DHT22;6062;47.294;12.182;2023-02-28T09:23:53;19.20;26.00
12006;DHT22;6062;47.294;12.182;2023-02-28T09:26:24;19.30;25.90
12006;DHT22;6062;47.294;12.182;2023-02-28T09:28:51;19.30;25.40
12006;DHT22;6062;47.294;12.182;2023-02-28T09:31:21;19.30;25.40
12006;DHT22;6062;47.294;12.182;2023-02-28T09:33:51;19.30;25.60
12006;DHT22;6062;47.294;12.182;2023-02-28T09:36:19;19.30;25.40
12006;DHT22;6062;47.294;12.182;2023-02-28T09:38:45;19.30;25.20
12006;DHT22;6062;47.294;12.182;2023-02-28T09:41:25;19.40;25.20
12006;DHT22;6062;47.294;12.182;2023-02-28T09:43:59;19.40;25.30
12006;DHT22;6062;47.294;12.182;2023-02-28T09:46:34;19.50;25.60
12006;DHT22;6062;47.294;12.182;2023-02-28T09:49:11;19.60;25.40
12006;DHT22;6062;47.294;12.182;2023-02-28T09:52:00;19.80;25.40
12006;DHT22;6062;47.294;12.182;2023-02-28T09:54:30;20.00;25.10
12006;DHT22;6062;47.294;12.182;2023-02-28T10:03:02;20.60;24.70
12006;DHT22;6062;47.294;12.182;2023-02-28T10:08:30;21.10;23.90
12006;DHT22;6062;47.294;12.182;2023-02-28T10:11:03;21.20;24.00
12006;DHT22;6062;47.294;12.182;2023-02-28T10:13:57;21.20;24.40
12006;DHT22;6062;47.294;12.182;2023-02-28T10:19:39;21.20;23.80
12006;DHT22;6062;47.294;12.182;2023-02-28T10:22:29;21.10;24.70
12006;DHT22;6062;47.294;12.182;2023-02-28T10:25:04;21.10;23.90
12006;DHT22;6062;47.294;12.182;2023-02-28T10:27:41;21.00;24.20
12006;DHT22;6062;47.294;12.182;2023-02-28T10:30:10;21.00;25.00
12006;DHT22;6062;47.294;12.182;2023-02-28T10:32:38;21.00;24.90
12006;DHT22;6062;47.294;12.182;2023-02-28T10:35:23;21.00;25.10
12006;DHT22;6062;47.294;12.182;2023-02-28T10:37:54;21.00;24.90
12006;DHT22;6062;47.294;12.182;2023-02-28T10:42:57;21.20;25.10
12006;DHT22;6062;47.294;12.182;2023-02-28T10:45:28;21.30;24.30
12006;DHT22;6062;47.294;12.182;2023-02-28T10:48:00;21.40;24.20
12006;DHT22;6062;47.294;12.182;2023-02-28T10:50:44;21.40;23.60
12006;DHT22;6062;47.294;12.182;2023-02-28T11:01:38;21.50;24.40
12006;DHT22;6062;47.294;12.182;2023-02-28T11:04:39;21.50;24.40
12006;DHT22;6062;47.294;12.182;2023-02-28T11:07:18;21.50;24.40
12006;DHT22;6062;47.294;12.182;2023-02-28T11:09:48;21.50;24.40
12006;DHT22;6062;47.294;12.182;2023-02-28T11:12:36;21.50;24.80
12006;DHT22;6062;47.294;12.182;2023-02-28T11:15:23;21.50;24.80
12006;DHT22;6062;47.294;12.182;2023-02-28T11:20:37;21.50;24.60
12006;DHT22;6062;47.294;12.182;2023-02-28T11:23:04;21.50;24.70
12006;DHT22;6062;47.294;12.182;2023-02-28T11:25:37;21.60;24.40
12006;DHT22;6062;47.294;12.182;2023-02-28T11:28:05;21.60;24.30
12006;DHT22;6062;47.294;12.182;2023-02-28T11:36:30;21.60;23.60
12006;DHT22;6062;47.294;12.182;2023-02-28T11:39:08;21.60;23.90
12006;DHT22;6062;47.294;12.182;2023-02-28T11:45:14;21.60;23.70
12006;DHT22;6062;47.294;12.182;2023-02-28T11:59:11;21.40;23.10
12006;DHT22;6062;47.294;12.182;2023-02-28T12:01:52;21.30;23.10
12006;DHT22;6062;47.294;12.182;2023-02-28T12:08:15;21.00;23.90
12006;DHT22;6062;47.294;12.182;2023-02-28T12:11:09;20.80;23.80
12006;DHT22;6062;47.294;12.182;2023-02-28T12:16:38;20.50;24.20
12006;DHT22;6062;47.294;12.182;2023-02-28T12:22:42;20.20;24.40
12006;DHT22;6062;47.294;12.182;2023-02-28T12:28:12;19.80;24.10
12006;DHT22;6062;47.294;12.182;2023-02-28T12:30:52;19.60;24.70
12006;DHT22;6062;47.294;12.182;2023-02-28T12:33:31;19.30;24.20
12006;DHT22;6062;47.294;12.182;2023-02-28T12:36:09;19.00;24.60
12006;DHT22;6062;47.294;12.182;2023-02-28T12:39:01;18.60;24.90
12006;DHT22;6062;47.294;12.182;2023-02-28T12:41:46;18.10;24.80
12006;DHT22;6062;47.294;12.182;2023-02-28T12:44:30;17.60;25.00
12006;DHT22;6062;47.294;12.182;2023-02-28T12:47:04;17.20;25.40
12006;DHT22;6062;47.294;12.182;2023-02-28T12:49:42;16.70;26.00
12006;DHT22;6062;47.294;12.182;2023-02-28T12:52:16;16.20;26.30
12006;DHT22;6062;47.294;12.182;2023-02-28T12:55:14;15.70;26.40
12006;DHT22;6062;47.294;12.182;2023-02-28T12:58:01;15.20;26.90
12006;DHT22;6062;47.294;12.182;2023-02-28T13:09:53;13.20;28.70
12006;DHT22;6062;47.294;12.182;2023-02-28T13:12:21;12.90;29.00
12006;DHT22;6062;47.294;12.182;2023-02-28T13:14:49;12.50;29.40
12006;DHT22;6062;47.294;12.182;2023-02-28T13:17:20;12.20;29.70
12006;DHT22;6062;47.294;12.182;2023-02-28T13:24:55;11.30;31.10
12006;DHT22;6062;47.294;12.182;2023-02-28T13:27:40;11.00;31.30
12006;DHT22;6062;47.294;12.182;2023-02-28T13:33:27;10.40;32.20
12006;DHT22;6062;47.294;12.182;2023-02-28T13:38:47;9.80;32.90
12006;DHT22;6062;47.294;12.182;2023-02-28T14:06:55;7.80;37.30
12006;DHT22;6062;47.294;12.182;2023-02-28T14:09:29;7.60;37.20
12006;DHT22;6062;47.294;12.182;2023-02-28T14:15:43;7.20;37.90
12006;DHT22;6062;47.294;12.182;2023-02-28T14:21:28;6.70;39.70
12006;DHT22;6062;47.294;12.182;2023-02-28T14:24:42;6.50;39.40
12006;DHT22;6062;47.294;12.182;2023-02-28T14:34:26;5.90;40.40
12006;DHT22;6062;47.294;12.182;2023-02-28T14:37:03;5.80;40.70
12006;DHT22;6062;47.294;12.182;2023-02-28T14:39:30;5.70;40.50
12006;DHT22;6062;47.294;12.182;2023-02-28T14:41:58;5.50;40.80
12006;DHT22;6062;47.294;12.182;2023-02-28T14:44:28;5.40;41.00
12006;DHT22;6062;47.294;12.182;2023-02-28T14:46:56;5.30;41.10
12006;DHT22;6062;47.294;12.182;2023-02-28T14:49:41;5.20;41.30
12006;DHT22;6062;47.294;12.182;2023-02-28T14:52:27;5.10;41.70
12006;DHT22;6062;47.294;12.182;2023-02-28T14:55:04;5.00;41.90
12006;DHT22;6062;47.294;12.182;2023-02-28T14:57:38;4.80;42.80
12006;DHT22;6062;47.294;12.182;2023-02-28T15:00:27;4.70;43.00
12006;DHT22;6062;47.294;12.182;2023-02-28T15:02:56;4.60;43.20
12006;DHT22;6062;47.294;12.182;2023-02-28T15:05:33;4.50;42.90
12006;DHT22;6062;47.294;12.182;2023-02-28T15:08:12;4.40;42.90
12006;DHT22;6062;47.294;12.182;2023-02-28T15:11:24;4.30;42.90
12006;DHT22;6062;47.294;12.182;2023-02-28T15:13:41;4.20;43.00
12006;DHT22;6062;47.294;12.182;2023-02-28T15:16:37;4.00;43.00
12006;DHT22;6062;47.294;12.182;2023-02-28T15:21:55;3.80;43.30
12006;DHT22;6062;47.294;12.182;2023-02-28T15:24:39;3.60;43.30
12006;DHT22;6062;47.294;12.182;2023-02-28T15:27:31;3.50;43.50
12006;DHT22;6062;47.294;12.182;2023-02-28T15:30:03;3.40;43.60
12006;DHT22;6062;47.294;12.182;2023-02-28T15:32:36;3.20;43.60
12006;DHT22;6062;47.294;12.182;2023-02-28T15:37:55;3.00;44.10
12006;DHT22;6062;47.294;12.182;2023-02-28T15:40:41;2.90;44.50
12006;DHT22;6062;47.294;12.182;2023-02-28T15:43:17;2.70;45.30
12006;DHT22;6062;47.294;12.182;2023-02-28T15:46:20;2.60;45.30
12006;DHT22;6062;47.294;12.182;2023-02-28T15:48:55;2.40;45.50
12006;DHT22;6062;47.294;12.182;2023-02-28T15:51:37;2.30;45.40
12006;DHT22;6062;47.294;12.182;2023-02-28T15:54:08;2.20;45.50
12006;DHT22;6062;47.294;12.182;2023-02-28T15:56:45;2.10;45.60
12006;DHT22;6062;47.294;12.182;2023-02-28T15:59:21;2.00;45.70
12006;DHT22;6062;47.294;12.182;2023-02-28T16:02:30;1.90;45.70
12006;DHT22;6062;47.294;12.182;2023-02-28T16:07:38;1.60;46.40
12006;DHT22;6062;47.294;12.182;2023-02-28T16:10:08;1.60;46.70
12006;DHT22;6062;47.294;12.182;2023-02-28T16:12:36;1.50;46.70
12006;DHT22;6062;47.294;12.182;2023-02-28T16:15:30;1.40;46.70
12006;DHT22;6062;47.294;12.182;2023-02-28T16:17:57;1.40;46.80
12006;DHT22;6062;47.294;12.182;2023-02-28T16:20:25;1.30;46.70
12006;DHT22;6062;47.294;12.182;2023-02-28T16:22:53;1.30;47.00
12006;DHT22;6062;47.294;12.182;2023-02-28T16:25:33;1.20;47.00
12006;DHT22;6062;47.294;12.182;2023-02-28T16:28:08;1.10;47.10
12006;DHT22;6062;47.294;12.182;2023-02-28T16:30:44;1.10;48.00
12006;DHT22;6062;47.294;12.182;2023-02-28T16:33:10;1.00;47.40
12006;DHT22;6062;47.294;12.182;2023-02-28T16:35:36;0.90;47.30
12006;DHT22;6062;47.294;12.182;2023-02-28T16:38:01;0.90;47.50
12006;DHT22;6062;47.294;12.182;2023-02-28T16:40:27;0.80;47.40
12006;DHT22;6062;47.294;12.182;2023-02-28T16:42:59;0.70;47.40
12006;DHT22;6062;47.294;12.182;2023-02-28T16:45:29;0.70;47.60
12006;DHT22;6062;47.294;12.182;2023-02-28T16:47:55;0.60;47.60
12006;DHT22;6062;47.294;12.182;2023-02-28T16:50:26;0.50;47.70
12006;DHT22;6062;47.294;12.182;2023-02-28T16:52:54;0.40;48.10
12006;DHT22;6062;47.294;12.182;2023-02-28T16:55:21;0.40;48.10
12006;DHT22;6062;47.294;12.182;2023-02-28T16:57:53;0.30;48.10
12006;DHT22;6062;47.294;12.182;2023-02-28T17:00:21;0.30;48.20
12006;DHT22;6062;47.294;12.182;2023-02-28T17:02:48;0.20;48.20
12006;DHT22;6062;47.294;12.182;2023-02-28T17:05:14;0.20;48.40
12006;DHT22;6062;47.294;12.182;2023-02-28T17:07:41;0.10;48.50
12006;DHT22;6062;47.294;12.182;2023-02-28T17:10:15;0.00;48.60
12006;DHT22;6062;47.294;12.182;2023-02-28T17:12:43;0.00;48.90
12006;DHT22;6062;47.294;12.182;2023-02-28T17:15:11;-0.10;48.90
12006;DHT22;6062;47.294;12.182;2023-02-28T17:17:38;-0.10;49.20
12006;DHT22;6062;47.294;12.182;2023-02-28T17:20:06;-0.20;49.20
12006;DHT22;6062;47.294;12.182;2023-02-28T17:22:32;-0.20;49.20
12006;DHT22;6062;47.294;12.182;2023-02-28T17:24:58;-0.30;49.30
12006;DHT22;6062;47.294;12.182;2023-02-28T17:27:24;-0.30;49.40
12006;DHT22;6062;47.294;12.182;2023-02-28T17:29:51;-0.40;49.30
12006;DHT22;6062;47.294;12.182;2023-02-28T17:32:16;-0.40;49.40
12006;DHT22;6062;47.294;12.182;2023-02-28T17:34:42;-0.50;49.60
12006;DHT22;6062;47.294;12.182;2023-02-28T17:37:09;-0.50;49.80
12006;DHT22;6062;47.294;12.182;2023-02-28T17:39:35;-0.60;49.70
12006;DHT22;6062;47.294;12.182;2023-02-28T17:42:01;-0.60;50.40
12006;DHT22;6062;47.294;12.182;2023-02-28T17:44:27;-0.60;49.80
12006;DHT22;6062;47.294;12.182;2023-02-28T17:46:54;-0.70;49.90
12006;DHT22;6062;47.294;12.182;2023-02-28T17:49:21;-0.80;50.00
12006;DHT22;6062;47.294;12.182;2023-02-28T17:51:47;-0.80;50.30
12006;DHT22;6062;47.294;12.182;2023-02-28T17:54:14;-0.80;50.40
12006;DHT22;6062;47.294;12.182;2023-02-28T17:56:41;-0.90;50.40
12006;DHT22;6062;47.294;12.182;2023-02-28T17:59:09;-1.00;50.50
12006;DHT22;6062;47.294;12.182;2023-02-28T18:01:36;-1.00;50.50
12006;DHT22;6062;47.294;12.182;2023-02-28T18:04:02;-1.00;50.40
12006;DHT22;6062;47.294;12.182;2023-02-28T18:06:35;-1.00;50.50
12006;DHT22;6062;47.294;12.182;2023-02-28T18:09:16;-1.00;50.70
12006;DHT22;6062;47.294;12.182;2023-02-28T18:11:43;-1.10;50.70
12006;DHT22;6062;47.294;12.182;2023-02-28T18:14:15;-1.10;50.50
12006;DHT22;6062;47.294;12.182;2023-02-28T18:16:42;-1.10;50.40
12006;DHT22;6062;47.294;12.182;2023-02-28T18:19:08;-1.20;50.40
12006;DHT22;6062;47.294;12.182;2023-02-28T18:22:01;-1.20;50.50
12006;DHT22;6062;47.294;12.182;2023-02-28T18:24:26;-1.30;50.50
12006;DHT22;6062;47.294;12.182;2023-02-28T18:26:52;-1.30;50.70
12006;DHT22;6062;47.294;12.182;2023-02-28T18:29:20;-1.40;50.80
12006;DHT22;6062;47.294;12.182;2023-02-28T18:31:48;-1.50;51.00
12006;DHT22;6062;47.294;12.182;2023-02-28T18:34:14;-1.50;51.10
12006;DHT22;6062;47.294;12.182;2023-02-28T18:36:40;-1.50;51.40
12006;DHT22;6062;47.294;12.182;2023-02-28T18:39:07;-1.60;51.20